createdAt,value
2018-08-12T00:02:04.701Z,101581.40
2018-08-12T00:04:35.340Z,101578.87
2018-08-12T00:07:05.497Z,101574.64
2018-08-12T00:09:38.708Z,101577.98
2018-08-12T00:12:09.664Z,101579.34
2018-08-12T00:14:42.560Z,101573.13
2018-08-12T00:17:12.610Z,101569.77
2018-08-12T00:19:43.770Z,101568.39
2018-08-12T00:22:13.590Z,101566.36
2018-08-12T00:24:43.615Z,101558.11
2018-08-12T00:27:13.582Z,101555.61
2018-08-12T00:29:43.737Z,101546.17
2018-08-12T00:32:14.205Z,101546.48
2018-08-12T00:34:43.473Z,101548.67
2018-08-12T00:37:13.946Z,101542.94
2018-08-12T00:39:45.822Z,101546.98
2018-08-12T00:42:16.405Z,101546.83
2018-08-12T00:44:46.456Z,101542.59
2018-08-12T00:47:20.709Z,101543.16
2018-08-12T00:49:50.781Z,101539.12
2018-08-12T00:52:31.413Z,101538.31
2018-08-12T00:55:01.421Z,101539.70
2018-08-12T00:57:31.601Z,101534.03
2018-08-12T01:00:06.867Z,101535.08
2018-08-12T01:02:37.153Z,101532.84
2018-08-12T01:05:08.768Z,101529.64
2018-08-12T01:07:38.715Z,101535.89
2018-08-12T01:10:10.662Z,101526.23
2018-08-12T01:12:42.469Z,101522.39
2018-08-12T01:15:22.488Z,101520.33
2018-08-12T01:17:56.068Z,101523.17
2018-08-12T01:20:28.242Z,101524.08
2018-08-12T01:22:59.314Z,101516.81
2018-08-12T01:25:33.558Z,101511.28
2018-08-12T01:28:03.690Z,101511.16
2018-08-12T01:30:33.553Z,101514.06
2018-08-12T01:33:03.204Z,101515.21
2018-08-12T01:38:06.933Z,101507.61
2018-08-12T01:40:36.821Z,101516.17
2018-08-12T01:43:06.912Z,101509.45
2018-08-12T01:45:37.974Z,101514.27
2018-08-12T01:48:08.564Z,101510.67
2018-08-12T01:50:39.449Z,101507.45
2018-08-12T01:53:08.851Z,101505.49
2018-08-12T01:55:40.597Z,101501.86
2018-08-12T01:58:11.248Z,101500.19
2018-08-12T02:00:43.620Z,101499.17
2018-08-12T02:03:13.228Z,101491.95
2018-08-12T02:05:46.076Z,101488.98
2018-08-12T02:08:18.514Z,101494.03
2018-08-12T02:10:48.587Z,101487.36
2018-08-12T02:13:20.442Z,101484.89
2018-08-12T02:15:50.592Z,101477.16
2018-08-12T02:18:20.295Z,101478.35
2018-08-12T02:20:50.303Z,101467.70
2018-08-12T02:23:19.666Z,101468.08
2018-08-12T02:25:49.981Z,101463.84
2018-08-12T02:28:21.758Z,101461.75
2018-08-12T02:30:54.390Z,101460.43
2018-08-12T02:33:23.870Z,101458.95
2018-08-12T02:35:53.291Z,101455.66
2018-08-12T02:38:22.915Z,101455.80
2018-08-12T02:40:52.541Z,101455.92
2018-08-12T02:43:21.887Z,101450.99
2018-08-12T02:45:51.762Z,101444.73
2018-08-12T02:48:22.510Z,101440.70
2018-08-12T02:50:52.917Z,101440.22
2018-08-12T02:53:23.238Z,101433.48
2018-08-12T02:55:54.491Z,101425.58
2018-08-12T02:58:24.975Z,101418.12
2018-08-12T03:00:55.934Z,101413.89
2018-08-12T03:03:25.673Z,101412.91
2018-08-12T03:05:57.372Z,101410.81
2018-08-12T03:08:29.941Z,101416.61
2018-08-12T03:11:00.299Z,101411.79
2018-08-12T03:13:30.395Z,101408.36
2018-08-12T03:16:00.468Z,101406.20
2018-08-12T03:18:31.636Z,101396.89
2018-08-12T03:21:01.988Z,101401.75
2018-08-12T03:23:32.073Z,101397.47
2018-08-12T03:26:01.845Z,101398.12
2018-08-12T03:28:31.617Z,101389.92
2018-08-12T03:31:01.245Z,101390.89
2018-08-12T03:33:31.747Z,101385.60
2018-08-12T03:36:03.067Z,101384.89
2018-08-12T03:38:32.764Z,101382.05
2018-08-12T03:41:02.872Z,101378.76
2018-08-12T03:43:33.578Z,101375.11
2018-08-12T03:46:03.864Z,101381.83
2018-08-12T03:48:34.554Z,101379.31
2018-08-12T03:51:04.990Z,101386.82
2018-08-12T03:53:35.498Z,101381.94
2018-08-12T03:56:06.212Z,101378.70
2018-08-12T03:58:36.340Z,101377.06
2018-08-12T04:01:07.712Z,101370.86
2018-08-12T04:03:38.223Z,101374.28
2018-08-12T04:06:07.669Z,101372.92
2018-08-12T04:08:37.429Z,101377.89
2018-08-12T04:11:07.501Z,101373.66
2018-08-12T04:13:38.826Z,101378.53
2018-08-12T04:16:08.883Z,101378.06
2018-08-12T04:18:38.546Z,101374.38
2018-08-12T04:21:09.065Z,101376.34
2018-08-12T04:23:38.595Z,101371.70
2018-08-12T04:26:08.096Z,101371.27
2018-08-12T04:28:44.076Z,101367.30
2018-08-12T04:31:13.385Z,101363.59
2018-08-12T04:33:43.534Z,101358.98
2018-08-12T04:36:13.239Z,101355.92
2018-08-12T04:38:42.667Z,101352.27
2018-08-12T04:41:17.078Z,101350.48
2018-08-12T04:43:46.390Z,101346.09
2018-08-12T04:46:16.188Z,101346.80
2018-08-12T04:48:45.807Z,101357.92
2018-08-12T04:51:15.507Z,101354.00
2018-08-12T04:53:45.987Z,101355.20
2018-08-12T04:58:46.163Z,101350.19
2018-08-12T05:01:15.845Z,101346.72
2018-08-12T05:03:47.298Z,101345.32
2018-08-12T05:06:18.733Z,101345.53
2018-08-12T05:08:48.202Z,101341.70
2018-08-12T05:11:18.883Z,101346.27
2018-08-12T05:13:48.535Z,101341.91
2018-08-12T05:16:19.579Z,101306.41
2018-08-12T05:18:51.950Z,101356.77
2018-08-12T05:21:22.355Z,101357.27
2018-08-12T05:23:51.757Z,101352.87
2018-08-12T05:26:21.555Z,101353.30
2018-08-12T05:28:50.912Z,101351.25
2018-08-12T05:31:20.888Z,101351.27
2018-08-12T05:33:56.134Z,101346.65
2018-08-12T05:36:25.707Z,101351.20
2018-08-12T05:38:55.482Z,101342.23
2018-08-12T05:41:25.502Z,101339.08
2018-08-12T05:43:54.942Z,101340.42
2018-08-12T05:46:24.752Z,101332.22
2018-08-12T05:48:54.458Z,101323.94
2018-08-12T05:51:26.596Z,101334.03
2018-08-12T05:53:56.034Z,101336.22
2018-08-12T05:56:25.718Z,101333.89
2018-08-12T05:58:55.573Z,101333.30
2018-08-12T06:01:25.643Z,101319.69
2018-08-12T06:03:56.220Z,101313.89
2018-08-12T06:06:25.579Z,101318.50
2018-08-12T06:08:55.425Z,101313.48
2018-08-12T06:11:27.780Z,101318.37
2018-08-12T06:13:58.742Z,101319.05
2018-08-12T06:16:29.634Z,101308.50
2018-08-12T06:18:59.477Z,101308.58
2018-08-12T06:21:29.089Z,101308.07
2018-08-12T06:23:58.791Z,101305.51
2018-08-12T06:26:28.361Z,101304.66
2018-08-12T06:29:01.329Z,101299.59
2018-08-12T06:31:31.664Z,101300.03
2018-08-12T06:34:01.374Z,101300.88
2018-08-12T06:36:32.962Z,101299.39
2018-08-12T06:39:05.475Z,101304.03
2018-08-12T06:41:34.791Z,101310.47
2018-08-12T06:44:04.347Z,101296.45
2018-08-12T06:46:35.799Z,101301.09
2018-08-12T06:49:06.082Z,101297.14
2018-08-12T06:51:36.605Z,101298.23
2018-08-12T06:54:06.515Z,101300.81
2018-08-12T06:56:36.587Z,101299.73
2018-08-12T06:59:08.263Z,101295.38
2018-08-12T07:01:40.294Z,101296.12
2018-08-12T07:04:09.719Z,101301.38
2018-08-12T07:06:42.716Z,101303.97
2018-08-12T07:09:12.617Z,101295.59
2018-08-12T07:11:43.080Z,101285.06
2018-08-12T07:14:16.402Z,101289.66
2018-08-12T07:16:47.592Z,101284.65
2018-08-12T07:19:18.157Z,101287.57
2018-08-12T07:21:49.205Z,101287.08
2018-08-12T07:24:19.326Z,101277.97
2018-08-12T07:26:51.041Z,101283.77
2018-08-12T07:29:23.721Z,101284.98
2018-08-12T07:31:55.585Z,101284.41
2018-08-12T07:34:26.104Z,101288.36
2018-08-12T07:36:57.122Z,101282.48
2018-08-12T07:39:26.634Z,101279.77
2018-08-12T07:41:56.431Z,101277.81
2018-08-12T07:44:26.181Z,101278.47
2018-08-12T07:46:57.293Z,101268.83
2018-08-12T07:49:28.085Z,101269.18
2018-08-12T07:51:57.451Z,101264.38
2018-08-12T07:54:27.572Z,101267.55
2018-08-12T07:56:57.973Z,101263.30
2018-08-12T07:59:28.098Z,101263.15
2018-08-12T08:01:58.232Z,101264.12
2018-08-12T08:04:29.205Z,101257.13
2018-08-12T08:07:01.579Z,101251.69
2018-08-12T08:09:36.363Z,101251.92
2018-08-12T08:12:07.153Z,101254.47
2018-08-12T08:14:38.806Z,101255.39
2018-08-12T08:17:08.508Z,101244.24
2018-08-12T08:19:38.780Z,101247.48
2018-08-12T08:22:08.154Z,101248.26
2018-08-12T08:24:39.387Z,101255.48
2018-08-12T08:27:09.284Z,101261.06
2018-08-12T08:29:40.306Z,101252.89
2018-08-12T08:32:11.611Z,101258.34
2018-08-12T08:34:41.978Z,101245.69
2018-08-12T08:37:11.701Z,101241.92
2018-08-12T08:39:41.427Z,101246.15
2018-08-12T08:42:11.693Z,101233.83
2018-08-12T08:44:42.078Z,101233.39
2018-08-12T08:47:20.485Z,101234.22
2018-08-12T08:49:50.322Z,101227.48
2018-08-12T08:52:22.389Z,101232.70
2018-08-12T08:54:52.288Z,101235.84
2018-08-12T08:57:23.426Z,101233.12
2018-08-12T08:59:54.281Z,101219.56
2018-08-12T09:02:36.658Z,101227.91
2018-08-12T09:05:08.723Z,101222.95
2018-08-12T09:07:38.516Z,101226.91
2018-08-12T09:10:10.641Z,101210.59
2018-08-12T09:12:40.441Z,101210.17
2018-08-12T09:15:19.476Z,101082.73
2018-08-12T09:17:50.856Z,101210.05
2018-08-12T09:20:24.020Z,101211.39
2018-08-12T09:22:54.083Z,101205.52
2018-08-12T09:25:24.248Z,101212.13
2018-08-12T09:27:55.535Z,101207.83
2018-08-12T09:30:25.750Z,101199.86
2018-08-12T09:32:57.746Z,101187.21
2018-08-12T09:35:28.280Z,101193.37
2018-08-12T09:37:58.606Z,101186.80
2018-08-12T09:40:30.067Z,101193.28
2018-08-12T09:43:02.283Z,101187.39
2018-08-12T09:45:32.132Z,101179.29
2018-08-12T09:48:02.468Z,101185.19
2018-08-12T09:50:31.865Z,101181.55
2018-08-12T09:53:04.559Z,101174.00
2018-08-12T09:55:34.097Z,101168.19
2018-08-12T09:58:03.945Z,101178.05
2018-08-12T10:00:39.809Z,101163.97
2018-08-12T10:03:11.700Z,101174.32
2018-08-12T10:05:41.674Z,101176.48
2018-08-12T10:08:13.921Z,101167.17
2018-08-12T10:10:46.511Z,101164.81
2018-08-12T10:13:16.442Z,101170.69
2018-08-12T10:15:46.467Z,101159.09
2018-08-12T10:18:17.163Z,101156.25
2018-08-12T10:20:48.721Z,101146.90
2018-08-12T10:23:19.167Z,101142.46
2018-08-12T10:25:48.745Z,101135.67
2018-08-12T10:28:20.445Z,101133.53
2018-08-12T10:30:53.441Z,101140.03
2018-08-12T10:33:23.746Z,101135.33
2018-08-12T10:35:55.800Z,101127.91
2018-08-12T10:38:25.507Z,101124.25
2018-08-12T10:40:55.840Z,101124.48
2018-08-12T10:43:25.214Z,101118.73
2018-08-12T10:46:04.615Z,101114.66
2018-08-12T10:48:36.732Z,101114.05
2018-08-12T10:51:08.722Z,101106.75
2018-08-12T10:53:42.031Z,101110.80
2018-08-12T10:56:14.088Z,101102.05
2018-08-12T10:58:45.206Z,101099.31
2018-08-12T11:01:15.539Z,101109.66
2018-08-12T11:03:53.021Z,101097.36
2018-08-12T11:06:26.618Z,101091.79
2018-08-12T11:08:56.213Z,101088.66
2018-08-12T11:11:27.839Z,101088.42
2018-08-12T11:14:00.252Z,101082.41
2018-08-12T11:16:32.377Z,101075.88
2018-08-12T11:19:05.531Z,101073.05
2018-08-12T11:21:35.858Z,101073.12
2018-08-12T11:24:06.768Z,101078.66
2018-08-12T11:26:46.030Z,101067.79
2018-08-12T11:29:19.387Z,101077.23
2018-08-12T11:31:52.668Z,101062.88
2018-08-12T11:34:24.060Z,101059.91
2018-08-12T11:36:54.465Z,101056.23
2018-08-12T11:39:25.663Z,101059.08
2018-08-12T11:41:55.494Z,101052.86
2018-08-12T11:47:10.304Z,101044.84
2018-08-12T11:49:40.713Z,101040.32
2018-08-12T11:52:14.151Z,101040.27
2018-08-12T11:54:47.645Z,101028.28
2018-08-12T11:57:18.601Z,101035.59
2018-08-12T11:59:51.621Z,101018.76
2018-08-12T12:02:28.365Z,101021.08
2018-08-12T12:05:16.489Z,101006.56
2018-08-12T12:07:48.061Z,101022.59
2018-08-12T12:10:23.119Z,101016.23
2018-08-12T12:12:58.549Z,101005.37
2018-08-12T12:15:57.472Z,101002.33
2018-08-12T12:18:28.188Z,101001.66
2018-08-12T12:20:59.777Z,100988.02
2018-08-12T12:23:31.089Z,100989.87
2018-08-12T12:26:01.515Z,100986.95
2018-08-12T12:28:33.769Z,100980.83
2018-08-12T12:31:03.960Z,100978.91
2018-08-12T12:33:34.773Z,100977.56
2018-08-12T12:36:04.413Z,100978.58
2018-08-12T12:38:35.588Z,100969.11
2018-08-12T12:41:10.739Z,100967.92
2018-08-12T12:43:45.020Z,100966.80
2018-08-12T12:48:40.135Z,100953.94
2018-08-12T12:51:10.854Z,100945.77
2018-08-12T12:53:41.219Z,100940.75
2018-08-12T12:56:12.865Z,100938.34
2018-08-12T12:58:42.426Z,100928.59
2018-08-12T13:01:12.052Z,100934.47
2018-08-12T13:03:42.699Z,100930.00
2018-08-12T13:06:16.009Z,100930.36
2018-08-12T13:08:46.597Z,100924.48
2018-08-12T13:11:16.980Z,100919.11
2018-08-12T13:13:50.066Z,100916.30
2018-08-12T13:16:23.670Z,100911.90
2018-08-12T13:18:54.627Z,100906.14
2018-08-12T13:21:27.976Z,100896.16
2018-08-12T13:23:58.489Z,100892.65
2018-08-12T13:26:30.051Z,100891.31
2018-08-12T13:29:00.489Z,100891.80
2018-08-12T13:31:30.523Z,100879.44
2018-08-12T13:34:00.295Z,100880.14
2018-08-12T13:36:31.793Z,100870.69
2018-08-12T13:39:11.733Z,100863.36
2018-08-12T13:41:43.625Z,100861.83
2018-08-12T13:44:16.468Z,100865.84
2018-08-12T13:46:48.601Z,100849.69
2018-08-12T13:49:27.100Z,100863.16
2018-08-12T13:52:04.304Z,100858.13
2018-08-12T13:54:39.342Z,100857.19
2018-08-12T13:57:14.572Z,100849.78
2018-08-12T13:59:44.513Z,100832.48
2018-08-12T14:02:16.563Z,100837.75
2018-08-12T14:04:45.771Z,100826.89
2018-08-12T14:07:16.303Z,100819.16
2018-08-12T14:09:46.617Z,100810.87
2018-08-12T14:12:22.513Z,100815.56
2018-08-12T14:14:54.039Z,100803.48
2018-08-12T14:17:23.844Z,100800.73
2018-08-12T14:19:55.263Z,100793.27
2018-08-12T14:22:24.658Z,100793.59
2018-08-12T14:24:54.369Z,100795.45
2018-08-12T14:27:26.584Z,100794.45
2018-08-12T14:29:57.257Z,100786.09
2018-08-12T14:32:31.145Z,100777.39
2018-08-12T14:35:01.743Z,100778.18
2018-08-12T14:37:33.155Z,100773.55
2018-08-12T14:40:05.983Z,100759.27
2018-08-12T14:42:36.395Z,100763.88
2018-08-12T14:45:09.403Z,100750.21
2018-08-12T14:47:40.047Z,100742.92
2018-08-12T14:50:13.353Z,100747.29
2018-08-12T14:52:55.455Z,100741.87
2018-08-12T14:55:26.568Z,100725.52
2018-08-12T14:57:57.974Z,100729.16
2018-08-12T15:00:27.753Z,100729.69
2018-08-12T15:02:57.114Z,100716.45
2018-08-12T15:05:27.836Z,100714.62
2018-08-12T15:07:58.200Z,100713.96
2018-08-12T15:10:28.882Z,100715.41
2018-08-12T15:13:02.073Z,100718.36
2018-08-12T15:15:35.146Z,100698.95
2018-08-12T15:18:09.928Z,100531.98
2018-08-12T15:20:39.204Z,100695.37
2018-08-12T15:23:15.640Z,100703.38
2018-08-12T15:25:46.237Z,100701.23
2018-08-12T15:28:20.600Z,100697.78
2018-08-12T15:30:51.675Z,100700.16
2018-08-12T15:33:24.916Z,100692.94
2018-08-12T15:35:54.779Z,100693.25
2018-08-12T15:38:28.070Z,100687.72
2018-08-12T15:40:57.427Z,100688.28
2018-08-12T15:43:26.666Z,100686.36
2018-08-12T15:45:58.654Z,100689.94
2018-08-12T15:48:31.321Z,100684.97
2018-08-12T15:51:01.208Z,100680.87
2018-08-12T15:53:33.980Z,100678.13
2018-08-12T15:56:11.208Z,100682.27
2018-08-12T15:58:41.127Z,100679.49
2018-08-12T16:01:11.332Z,100665.70
2018-08-12T16:03:52.726Z,100664.06
2018-08-12T16:06:22.154Z,100671.51
2018-08-12T16:08:51.887Z,100665.97
2018-08-12T16:11:27.042Z,100663.24
2018-08-12T16:14:01.449Z,100661.03
2018-08-12T16:16:33.357Z,100661.59
2018-08-12T16:19:04.146Z,100655.79
2018-08-12T16:21:34.353Z,100659.02
2018-08-12T16:24:05.888Z,100650.77
2018-08-12T16:26:35.571Z,100646.38
2018-08-12T16:29:06.121Z,100646.86
2018-08-12T16:31:36.419Z,100641.39
2018-08-12T16:34:06.717Z,100631.25
2018-08-12T16:36:37.859Z,100632.13
2018-08-12T16:39:11.055Z,100634.89
2018-08-12T16:41:40.716Z,100626.28
2018-08-12T16:44:10.185Z,100625.53
2018-08-12T16:46:41.171Z,100620.77
2018-08-12T16:49:11.029Z,100610.33
2018-08-12T16:51:45.135Z,100611.95
2018-08-12T16:54:15.707Z,100611.17
2018-08-12T16:56:50.403Z,100601.56
2018-08-12T16:59:22.063Z,100599.36
2018-08-12T17:01:54.981Z,100602.34
2018-08-12T17:04:27.765Z,100599.87
2018-08-12T17:07:06.267Z,100595.56
2018-08-12T17:09:39.222Z,100590.88
2018-08-12T17:12:09.704Z,100583.72
2018-08-12T17:14:40.670Z,100582.89
2018-08-12T17:17:14.083Z,100575.98
2018-08-12T17:19:45.902Z,100573.81
2018-08-12T17:22:18.117Z,100569.95
2018-08-12T17:24:49.082Z,100564.98
2018-08-12T17:27:18.498Z,100559.45
2018-08-12T17:29:49.736Z,100564.90
2018-08-12T17:32:20.692Z,100559.45
2018-08-12T17:35:13.206Z,100549.83
2018-08-12T17:37:45.258Z,100547.56
2018-08-12T17:40:19.746Z,100553.60
2018-08-12T17:42:53.487Z,100547.28
2018-08-12T17:45:24.709Z,100540.19
2018-08-12T17:47:55.952Z,100537.39
2018-08-12T17:50:25.852Z,100536.20
2018-08-12T17:52:55.861Z,100539.22
2018-08-12T17:55:26.263Z,100532.94
2018-08-12T17:57:56.998Z,100533.77
2018-08-12T18:00:27.751Z,100534.02
2018-08-12T18:03:01.191Z,100536.49
2018-08-12T18:05:30.877Z,100532.91
2018-08-12T18:08:00.280Z,100539.80
2018-08-12T18:10:30.045Z,100536.47
2018-08-12T18:13:03.597Z,100537.77
2018-08-12T18:15:36.080Z,100533.03
2018-08-12T18:18:07.687Z,100538.72
2018-08-12T18:20:39.079Z,100533.50
2018-08-12T18:23:10.272Z,100538.92
2018-08-12T18:25:42.274Z,100530.16
2018-08-12T18:28:13.187Z,100523.03
2018-08-12T18:30:43.863Z,100523.75
2018-08-12T18:33:18.770Z,100525.31
2018-08-12T18:35:51.119Z,100522.47
2018-08-12T18:38:20.666Z,100530.41
2018-08-12T18:41:09.197Z,100532.35
2018-08-12T18:43:39.412Z,100531.52
2018-08-12T18:46:11.123Z,100533.98
2018-08-12T18:48:40.877Z,100539.34
2018-08-12T18:51:12.903Z,100537.94
2018-08-12T18:53:45.181Z,100528.51
2018-08-12T18:56:17.786Z,100531.16
2018-08-12T18:58:49.634Z,100527.34
2018-08-12T19:01:20.898Z,100534.56
2018-08-12T19:03:50.669Z,100540.67
2018-08-12T19:06:22.951Z,100538.72
2018-08-12T19:08:54.997Z,100538.80
2018-08-12T19:11:25.601Z,100542.05
2018-08-12T19:14:01.468Z,100541.45
2018-08-12T19:16:32.421Z,100541.12
2018-08-12T19:19:03.210Z,100538.72
2018-08-12T19:21:34.612Z,100540.62
2018-08-12T19:24:05.145Z,100538.33
2018-08-12T19:26:36.051Z,100538.87
2018-08-12T19:29:05.834Z,100536.16
2018-08-12T19:31:36.822Z,100541.56
2018-08-12T19:34:12.429Z,100536.80
2018-08-12T19:36:59.134Z,100538.09
2018-08-12T19:39:31.345Z,100539.20
2018-08-12T19:42:03.700Z,100536.77
2018-08-12T19:44:39.738Z,100539.98
2018-08-12T19:47:23.659Z,100538.44
2018-08-12T19:49:55.938Z,100533.80
2018-08-12T19:52:25.668Z,100532.00
2018-08-12T19:54:56.386Z,100532.00
2018-08-12T19:57:35.442Z,100420.27
2018-08-12T20:00:16.316Z,100529.28
2018-08-12T20:02:49.197Z,100529.26
2018-08-12T20:05:19.716Z,100523.91
2018-08-12T20:07:51.422Z,100523.72
2018-08-12T20:10:27.687Z,100515.12
2018-08-12T20:12:58.250Z,100520.59
2018-08-12T20:15:31.567Z,100526.89
2018-08-12T20:18:03.242Z,100523.34
2018-08-12T20:20:32.907Z,100525.03
2018-08-12T20:23:04.620Z,100526.89
2018-08-12T20:25:34.690Z,100527.30
2018-08-12T20:28:07.097Z,100517.95
2018-08-12T20:30:37.962Z,100515.16
2018-08-12T20:33:08.688Z,100506.33
2018-08-12T20:35:38.786Z,100502.09
2018-08-12T20:38:10.845Z,100499.62
2018-08-12T20:40:41.287Z,100500.61
2018-08-12T20:43:12.718Z,100502.03
2018-08-12T20:45:53.103Z,100499.59
2018-08-12T20:48:23.259Z,100497.23
2018-08-12T20:50:56.959Z,100498.03
2018-08-12T20:53:27.821Z,100498.09
2018-08-12T20:55:58.688Z,100488.66
2018-08-12T20:58:29.396Z,100489.50
2018-08-12T21:01:11.968Z,100486.98
2018-08-12T21:03:43.558Z,100489.22
2018-08-12T21:06:15.776Z,100490.84
2018-08-12T21:08:46.509Z,100495.13
2018-08-12T21:11:16.643Z,100488.93
2018-08-12T21:13:47.747Z,100483.38
2018-08-12T21:16:18.335Z,100481.62
2018-08-12T21:18:52.137Z,100482.19
2018-08-12T21:21:21.865Z,100477.57
2018-08-12T21:23:53.522Z,100479.81
2018-08-12T21:26:23.061Z,100473.25
2018-08-12T21:28:53.593Z,100471.23
2018-08-12T21:31:25.828Z,100467.45
2018-08-12T21:33:55.275Z,100458.83
2018-08-12T21:36:25.263Z,100467.05
2018-08-12T21:39:01.601Z,100460.05
2018-08-12T21:41:42.564Z,100458.34
2018-08-12T21:44:16.931Z,100455.97
2018-08-12T21:46:47.101Z,100453.66
2018-08-12T21:49:16.528Z,100453.87
2018-08-12T21:51:46.300Z,100453.00
2018-08-12T21:54:17.058Z,100450.20
2018-08-12T21:56:48.710Z,100452.36
2018-08-12T21:59:21.090Z,100448.86
2018-08-12T22:01:52.211Z,100445.61
2018-08-12T22:04:27.520Z,100440.69
2018-08-12T22:06:58.061Z,100441.63
2018-08-12T22:09:29.517Z,100440.75
2018-08-12T22:12:01.276Z,100439.12
2018-08-12T22:14:33.465Z,100443.02
2018-08-12T22:17:03.898Z,100435.57
2018-08-12T22:19:33.647Z,100431.13
2018-08-12T22:22:03.151Z,100431.20
2018-08-12T22:24:33.200Z,100427.81
2018-08-12T22:27:03.475Z,100424.72
2018-08-12T22:29:43.297Z,100425.92
2018-08-12T22:32:14.149Z,100420.27
2018-08-12T22:34:45.137Z,100422.44
2018-08-12T22:37:14.576Z,100420.70
2018-08-12T22:39:44.350Z,100425.61
2018-08-12T22:42:13.843Z,100419.61
2018-08-12T22:44:45.780Z,100420.55
2018-08-12T22:47:17.241Z,100409.57
2018-08-12T22:49:48.536Z,100416.72
2018-08-12T22:52:18.353Z,100410.50
2018-08-12T22:54:48.855Z,100412.81
2018-08-12T22:57:19.590Z,100419.14
2018-08-12T22:59:50.058Z,100418.74
2018-08-12T23:02:19.401Z,100417.68
2018-08-12T23:04:49.835Z,100417.45
2018-08-12T23:07:20.088Z,100414.53
2018-08-12T23:09:49.494Z,100414.01
2018-08-12T23:14:57.379Z,100407.49
2018-08-12T23:17:28.296Z,100405.02
2018-08-12T23:20:01.068Z,100398.16
2018-08-12T23:22:32.174Z,100393.00
2018-08-12T23:25:02.150Z,100390.05
2018-08-12T23:27:34.485Z,100384.77
2018-08-12T23:30:07.392Z,100383.34
2018-08-12T23:32:37.431Z,100384.34
2018-08-12T23:35:07.108Z,100380.03
2018-08-12T23:37:36.809Z,100374.23
2018-08-12T23:40:09.343Z,100365.70
2018-08-12T23:42:38.856Z,100355.90
2018-08-12T23:45:08.655Z,100360.96
2018-08-12T23:47:38.854Z,100355.53
2018-08-12T23:50:08.303Z,100348.37
2018-08-12T23:52:38.027Z,100347.01
2018-08-12T23:55:08.103Z,100346.17
2018-08-12T23:57:38.566Z,100341.73
